Thunder radar more information blitzortung!


Radar de pluja more information rain snow radar


Visita la nostra xarxa de llocs de meteo:

Template documentation
and downloads

And another site



No particular awareness of the weather is required.    There are no Weather-warnings

Pagina Historial Weather Underground text

Diari Resum May 4, 2017 Unitats:  Mètric    Imperial   Tant
« Previous Dia
SegĂźent Dia »
Diari Setmana Mensual Anual Personalitzada
  Maxima: Minima: Media:
Temperatura: -17.8 °C -11.8 °C -8.2 °C
Punt de rosada: -17.8 °C -12.7 °C -11.6 °C
Humitat: Humidity % 51 % 69 %
Wind Speed: 0 km/h 0 km/h 9.7 km/h
RĂ fegues de vent: 0 km/h - -
Vent:- - South
Pression baro: 0 hPa 34256.2 hPa -
Precipitacions: 0 mm    
Historical Graphs
 
 
Dades de taula per May 4, 2017
Temps Temperatura Punt de rosada Pression baro Vent Wind Speed RĂ fegues de vent Humitat Rainfall Rate (Hourly)
-17.8 °C -17.8 °C 0 hPa Calm     Humidity % 0 mm
00:00 -11.7 °C -12.6 °C 34395 hPa Calm     90 % 0 mm
00:02 -11 °C -12.3 °C 34462.7 hPa NE 6 km/h 6 km/h 86 % 0 mm
00:07 -11 °C -12.3 °C 34462.7 hPa NNE 3.1 km/h   86 % 0 mm
00:10 -11.7 °C -12.6 °C 34395 hPa Calm     90 % 0 mm
00:25 -11.7 °C -12.4 °C 34395 hPa Calm     91 % 0 mm
00:35 -11.7 °C -12.4 °C 34395 hPa Calm     91 % 0 mm
00:45 -11.7 °C -12.5 °C 34395 hPa Calm     91 % 0 mm
00:55 -11.8 °C -12.7 °C 34395 hPa SW 2.6 km/h 5.1 km/h 90 % 0 mm
01:05 -11.8 °C -12.6 °C 34395 hPa SW 2.6 km/h 2.6 km/h 91 % 0 mm
01:15 -11.8 °C -12.6 °C 34395 hPa Calm     91 % 0 mm
01:25 -11.8 °C -12.6 °C 34395 hPa Calm     91 % 0 mm
01:35 -11.8 °C -12.6 °C 34361.1 hPa Calm     91 % 0 mm
01:45 -11.8 °C -12.4 °C 34361.1 hPa Calm     92 % 0 mm
01:55 -11.8 °C -12.6 °C 34361.1 hPa Calm     91 % 0 mm
02:05 -11.8 °C -12.6 °C 34361.1 hPa WSW 2.6 km/h 2.6 km/h 91 % 0 mm
02:15 -11.8 °C -12.4 °C 34361.1 hPa Calm   2.6 km/h 92 % 0 mm
02:25 -11.8 °C -12.4 °C 34361.1 hPa WSW 2.6 km/h 5.1 km/h 92 % 0 mm
02:35 -11.8 °C -12.4 °C 34361.1 hPa Calm   2.6 km/h 92 % 0 mm
02:45 -11.7 °C -12.4 °C 34361.1 hPa WSW 2.6 km/h 5.1 km/h 92 % 0 mm
02:55 -11.7 °C -12.4 °C 34361.1 hPa WSW 5.1 km/h 5.1 km/h 92 % 0 mm
03:05 -11.7 °C -12.5 °C 34361.1 hPa WSW 2.6 km/h 5.1 km/h 91 % 0 mm
03:15 -11.7 °C -12.5 °C 34361.1 hPa WSW 5.1 km/h 7.7 km/h 91 % 0 mm
03:25 -11.7 °C -12.5 °C 34361.1 hPa SW 2.6 km/h 5.1 km/h 91 % 0 mm
03:35 -11.6 °C -12.4 °C 34361.1 hPa WSW 2.6 km/h 5.1 km/h 91 % 0 mm
03:45 -11.6 °C -12.3 °C 34361.1 hPa WSW 2.6 km/h 5.1 km/h 92 % 0 mm
03:55 -11.4 °C -12.1 °C 34361.1 hPa SW 2.6 km/h 2.6 km/h 93 % 0 mm
04:05 -11.4 °C -12 °C 34361.1 hPa SSE 2.6 km/h 5.1 km/h 93 % 0 mm
04:15 -11.1 °C -11.7 °C 34361.1 hPa SE 2.6 km/h 2.6 km/h 93 % 0 mm
04:25 -10.8 °C -11.4 °C 34361.1 hPa SW 2.6 km/h 5.1 km/h 93 % 0 mm
04:35 -10.8 °C -11.5 °C 34361.1 hPa SW 2.6 km/h 5.1 km/h 92 % 0 mm
04:45 -10.6 °C -11.4 °C 34361.1 hPa SW 5.1 km/h 7.7 km/h 91 % 0 mm
04:55 -10.6 °C -11.5 °C 34361.1 hPa SW 2.6 km/h 5.1 km/h 90 % 0 mm
05:05 -10.4 °C -11.4 °C 34327.3 hPa WSW 5.1 km/h 5.1 km/h 89 % 0 mm
05:15 -9.9 °C -10.9 °C 34327.3 hPa SW 2.6 km/h 7.7 km/h 89 % 0 mm
05:25 -9.7 °C -10.8 °C 34361.1 hPa SW 2.6 km/h 5.1 km/h 88 % 0 mm
05:35 -9.3 °C -10.7 °C 34361.1 hPa WSW 2.6 km/h 10.3 km/h 85 % 0 mm
05:45 -8.8 °C -10.4 °C 34361.1 hPa SSW 2.6 km/h 10.3 km/h 83 % 0 mm
05:55 -8.5 °C -10.2 °C 34327.3 hPa SSW 2.6 km/h 7.7 km/h 82 % 0 mm
11:00 -8.2 °C -10.2 °C 34327.3 hPa WSW 9 km/h 9 km/h 80 % 0 mm
11:05 -8.4 °C -10.4 °C 34327.3 hPa SSE 15 km/h 15 km/h 80 % 0 mm
11:10 -8.3 °C -10.4 °C 34327.3 hPa SW 17.9 km/h 17.9 km/h 78 % 0 mm
11:15 -8.1 °C -10.3 °C 34327.3 hPa SW 9 km/h 9 km/h 78 % 0 mm
11:20 -7.9 °C -10.2 °C 34327.3 hPa SSW 15 km/h 15 km/h 77 % 0 mm
11:21 -7.8 °C -10.1 °C 34327.3 hPa South 15 km/h 15 km/h 77 % 0 mm
11:27 -7.9 °C -10.4 °C 34327.3 hPa SW 11.9 km/h 11.9 km/h 76 % 0 mm
11:32 -7.7 °C -10.2 °C 34327.3 hPa South 10.3 km/h 10.3 km/h 75 % 0 mm
11:37 -7.8 °C -10.3 °C 34327.3 hPa WSW 11.9 km/h 11.9 km/h 75 % 0 mm
11:42 -7.8 °C -10.4 °C 34327.3 hPa SW 12.7 km/h 12.7 km/h 74 % 0 mm
11:47 -7.6 °C -10.2 °C 34327.3 hPa SSE 17.9 km/h 17.9 km/h 74 % 0 mm
11:52 -7.4 °C -10.2 °C 34327.3 hPa WSW 15 km/h 15 km/h 73 % 0 mm
11:57 -7.6 °C -10.4 °C 34327.3 hPa WSW 8.5 km/h 8.5 km/h 72 % 0 mm
11:58 -7.6 °C -10.3 °C 34327.3 hPa WNW 9 km/h 9 km/h 73 % 0 mm
12:03 -7.4 °C -10.2 °C 34327.3 hPa SW 6 km/h 6 km/h 72 % 0 mm
12:08 -7.3 °C -10.2 °C 34327.3 hPa SSE 9 km/h 9 km/h 72 % 0 mm
12:13 -7.1 °C -10.2 °C 34327.3 hPa WSW 6 km/h 6 km/h 70 % 0 mm
12:18 -7.1 °C -10.1 °C 34327.3 hPa WSW 10.3 km/h 10.3 km/h 71 % 0 mm
12:23 -7.2 °C -10.5 °C 34327.3 hPa SW 15 km/h 15 km/h 68 % 0 mm
12:28 -7 °C -10.4 °C 34327.3 hPa SE 9 km/h 9 km/h 68 % 0 mm
12:33 -6.9 °C -10.6 °C 34327.3 hPa SSE 9 km/h 9 km/h 66 % 0 mm
12:38 -6.6 °C -10.4 °C 34327.3 hPa WSW 11.9 km/h 11.9 km/h 64 % 0 mm
12:43 -6.4 °C -10.8 °C 34327.3 hPa WSW 11.9 km/h 11.9 km/h 61 % 0 mm
12:48 -6.3 °C -10.4 °C 34327.3 hPa WSW 15 km/h 15 km/h 63 % 0 mm
12:53 -6.2 °C -10.7 °C 34327.3 hPa SSE 3.7 km/h 3.7 km/h 60 % 0 mm
12:58 -6.2 °C -10.7 °C 34327.3 hPa SSE 15 km/h 15 km/h 60 % 0 mm
13:03 -6.1 °C -10.7 °C 34327.3 hPa WSW 17.9 km/h 17.9 km/h 59 % 0 mm
13:08 -6.2 °C -11.3 °C 34327.3 hPa South 15 km/h 15 km/h 56 % 0 mm
13:13 -5.8 °C -10.6 °C 34327.3 hPa SW 11.1 km/h 11.1 km/h 58 % 0 mm
13:18 -6.1 °C -11.3 °C 34327.3 hPa WSW 26.9 km/h 26.9 km/h 55 % 0 mm
13:23 -6 °C -11.2 °C 34327.3 hPa SW 29.8 km/h 29.8 km/h 55 % 0 mm
13:28 -5.8 °C -10.9 °C 34327.3 hPa SW 22 km/h 22 km/h 56 % 0 mm
13:33 -5.6 °C -10.8 °C 34327.3 hPa NW 12.2 km/h 12.2 km/h 55 % 0 mm
13:38 -5.9 °C -11.1 °C 34327.3 hPa SW 22 km/h 22 km/h 55 % 0 mm
13:43 -5.7 °C -11.1 °C 34293.4 hPa WSW 20.9 km/h 20.9 km/h 54 % 0 mm
13:48 -5.4 °C -10.8 °C 34293.4 hPa WSW 15 km/h 15 km/h 54 % 0 mm
13:53 -5.7 °C -11.3 °C 34293.4 hPa SSW 20.9 km/h 20.9 km/h 53 % 0 mm
13:58 -5.7 °C -11.3 °C 34327.3 hPa SSW 17.9 km/h 17.9 km/h 53 % 0 mm
14:03 -5.5 °C -11.1 °C 34327.3 hPa SSE 15 km/h 15 km/h 53 % 0 mm
14:08 -5.4 °C -10.9 °C 34327.3 hPa South 9 km/h 9 km/h 53 % 0 mm
14:13 -5.4 °C -11.2 °C 34293.4 hPa SSW 17.9 km/h 17.9 km/h 52 % 0 mm
14:18 -5.4 °C -11 °C 34293.4 hPa WSW 15 km/h 15 km/h 53 % 0 mm
14:23 -5.5 °C -11.1 °C 34293.4 hPa SSE 15 km/h 15 km/h 53 % 0 mm
14:28 -5.5 °C -11.1 °C 34293.4 hPa SSE 20.9 km/h 20.9 km/h 53 % 0 mm
14:33 -5.3 °C -11.1 °C 34293.4 hPa East 9.3 km/h 9.3 km/h 52 % 0 mm
14:38 -5.4 °C -10.9 °C 34293.4 hPa SSW 23.8 km/h 23.8 km/h 53 % 0 mm
14:43 -5.6 °C -11.1 °C 34293.4 hPa South 15 km/h 15 km/h 53 % 0 mm
14:48 -5.3 °C -11.1 °C 34293.4 hPa South 15 km/h 15 km/h 52 % 0 mm
14:53 -5.4 °C -11.2 °C 34293.4 hPa SW 17.9 km/h 17.9 km/h 52 % 0 mm
14:58 -5.3 °C -11.1 °C 34293.4 hPa WNW 15 km/h 15 km/h 52 % 0 mm
15:03 -5.2 °C -10.9 °C 34293.4 hPa South 11.9 km/h 11.9 km/h 52 % 0 mm
15:04 -5.2 °C -10.9 °C 34293.4 hPa South 12.2 km/h 12.2 km/h 52 % 0 mm
15:09 -5.3 °C -11 °C 34293.4 hPa SW 25.1 km/h 25.1 km/h 52 % 0 mm
15:14 -5.1 °C -10.9 °C 34293.4 hPa SW 10.3 km/h 10.3 km/h 52 % 0 mm
15:19 -5.2 °C -10.9 °C 34293.4 hPa SSW 23.8 km/h 23.8 km/h 52 % 0 mm
15:24 -5.4 °C -11.3 °C 34293.4 hPa West 11.9 km/h 11.9 km/h 51 % 0 mm
15:29 -5.5 °C -11.4 °C 34256.2 hPa SSW 23.8 km/h 23.8 km/h 51 % 0 mm
15:34 -5.3 °C -11 °C 34256.2 hPa SW 11.9 km/h 11.9 km/h 52 % 0 mm
15:39 -5.4 °C -11.3 °C 34256.2 hPa SW 15 km/h 15 km/h 51 % 0 mm
15:44 -5.4 °C -11.3 °C 34256.2 hPa South 15 km/h 15 km/h 51 % 0 mm
15:49 -5.3 °C -11.2 °C 34256.2 hPa WSW 26.4 km/h 26.4 km/h 51 % 0 mm
15:54 -6 °C -11.8 °C 34256.2 hPa South 20.9 km/h 20.9 km/h 51 % 0 mm
15:59 -5.7 °C -11.6 °C 34256.2 hPa SW 20.9 km/h 20.9 km/h 51 % 0 mm
16:04 -5.6 °C -11.3 °C 34256.2 hPa WSW 22 km/h 22 km/h 52 % 0 mm
16:09 -5.4 °C -11.2 °C 34256.2 hPa SSE 16.1 km/h 16.1 km/h 52 % 0 mm
16:14 -5.6 °C -11.3 °C 34256.2 hPa SW 17.9 km/h 17.9 km/h 52 % 0 mm
16:19 -5.3 °C -11.1 °C 34256.2 hPa WSW 11.9 km/h 11.9 km/h 52 % 0 mm
16:24 -5.4 °C -11.2 °C 34256.2 hPa WSW 11.9 km/h 11.9 km/h 52 % 0 mm
16:29 -5.6 °C -11.3 °C 34256.2 hPa WSW 22 km/h 22 km/h 52 % 0 mm
16:34 -5.7 °C -11.4 °C 34256.2 hPa SSW 23.8 km/h 23.8 km/h 52 % 0 mm
16:39 -5.6 °C -11.3 °C 34256.2 hPa SW 20.3 km/h 20.3 km/h 52 % 0 mm
16:44 -5.6 °C -11.3 °C 34256.2 hPa SSW 15 km/h 15 km/h 52 % 0 mm
16:49 -5.8 °C -11.7 °C 34256.2 hPa SSE 17.9 km/h 17.9 km/h 51 % 0 mm
16:54 -5.7 °C -11.4 °C 34256.2 hPa SW 20.9 km/h 20.9 km/h 52 % 0 mm
16:59 -5.8 °C -11.6 °C 34256.2 hPa West 20.9 km/h 20.9 km/h 52 % 0 mm
17:04 -5.7 °C -11.4 °C 34256.2 hPa NW 8 km/h 8 km/h 52 % 0 mm
17:09 -5.6 °C -11.3 °C 34256.2 hPa WSW 9 km/h 9 km/h 52 % 0 mm
17:14 -5.8 °C -11.5 °C 34256.2 hPa SSE 15 km/h 15 km/h 52 % 0 mm
17:19 -5.6 °C -11.1 °C 34256.2 hPa WSW 15 km/h 15 km/h 53 % 0 mm
17:24 -5.6 °C -11.3 °C 34256.2 hPa SSE 11.9 km/h 11.9 km/h 52 % 0 mm
17:29 -5.9 °C -11.6 °C 34293.4 hPa SW 11.9 km/h 11.9 km/h 52 % 0 mm
17:34 -5.7 °C -11.3 °C 34293.4 hPa SW 8 km/h 8 km/h 53 % 0 mm
17:39 -5.8 °C -11.6 °C 34293.4 hPa SSW 15 km/h 15 km/h 52 % 0 mm
17:44 -5.8 °C -11.5 °C 34256.2 hPa SSW 15 km/h 15 km/h 52 % 0 mm
17:49 -6 °C -11.7 °C 34256.2 hPa SSW 9.3 km/h 9.3 km/h 52 % 0 mm
17:54 -6.2 °C -11.6 °C 34256.2 hPa SSE 11.9 km/h 11.9 km/h 54 % 0 mm
17:59 -6.2 °C -11.6 °C 34256.2 hPa WSW 11.9 km/h 11.9 km/h 54 % 0 mm
18:04 -6.4 °C -11.8 °C 34256.2 hPa SSW 11.9 km/h 11.9 km/h 54 % 0 mm
18:09 -6.5 °C -11.8 °C 34256.2 hPa SW 15 km/h 15 km/h 54 % 0 mm
18:14 -6.6 °C -11.7 °C 34256.2 hPa WSW 15 km/h 15 km/h 55 % 0 mm
18:19 -6.6 °C -11.7 °C 34256.2 hPa SSW 6 km/h 6 km/h 55 % 0 mm
18:24 -6.4 °C -11.6 °C 34256.2 hPa South 6 km/h 6 km/h 55 % 0 mm
18:29 -6.6 °C -11.8 °C 34256.2 hPa SW 6 km/h 6 km/h 55 % 0 mm
18:34 -6.9 °C -11.9 °C 34256.2 hPa ESE 15 km/h 15 km/h 56 % 0 mm
18:39 -6.9 °C -11.8 °C 34256.2 hPa WSW 9.8 km/h 9.8 km/h 57 % 0 mm
18:44 -7 °C -11.7 °C 34256.2 hPa SSW 9.3 km/h 9.3 km/h 58 % 0 mm
18:49 -7.2 °C -11.8 °C 34256.2 hPa SW 15 km/h 15 km/h 58 % 0 mm
18:54 -7.3 °C -11.8 °C 34256.2 hPa WSW 9 km/h 9 km/h 59 % 0 mm
18:59 -7.4 °C -11.8 °C 34293.4 hPa SW 16.1 km/h 16.1 km/h 60 % 0 mm
19:04 -7.5 °C -11.8 °C 34293.4 hPa West 15 km/h 15 km/h 61 % 0 mm
19:09 -7.6 °C -11.7 °C 34293.4 hPa WSW 15 km/h 15 km/h 62 % 0 mm
19:14 -7.6 °C -11.7 °C 34293.4 hPa SSW 11.9 km/h 11.9 km/h 62 % 0 mm
19:19 -7.7 °C -11.7 °C 34293.4 hPa South 19.6 km/h 19.6 km/h 63 % 0 mm
19:24 -7.7 °C -11.7 °C 34293.4 hPa SW 9 km/h 9 km/h 63 % 0 mm
19:25 -9.8 °C -11.7 °C 34361.1 hPa NE 5.1 km/h 10.3 km/h 80 % 0 mm
19:29 -7.8 °C -11.8 °C 34293.4 hPa SW 15 km/h 15 km/h 63 % 0 mm
19:34 -7.9 °C -11.8 °C 34293.4 hPa WSW 11.9 km/h 11.9 km/h 63 % 0 mm
19:35 -9.8 °C -11.7 °C 34361.1 hPa NE 7.7 km/h 10.3 km/h 80 % 0 mm
19:39 -7.9 °C -11.8 °C 34293.4 hPa ESE 11.9 km/h 11.9 km/h 64 % 0 mm
19:44 -8.1 °C -11.9 °C 34327.3 hPa West 15 km/h 15 km/h 64 % 0 mm
19:45 -9.8 °C -11.7 °C 34361.1 hPa NE 5.1 km/h 7.7 km/h 80 % 0 mm
19:49 -8.1 °C -11.9 °C 34327.3 hPa WSW 6.8 km/h 6.8 km/h 64 % 0 mm
19:54 -8.2 °C -12 °C 34327.3 hPa SW 15 km/h 15 km/h 64 % 0 mm
19:55 -9.8 °C -11.7 °C 34361.1 hPa NE 2.6 km/h 5.1 km/h 80 % 0 mm
19:59 -8.2 °C -12.1 °C 34327.3 hPa WSW 9 km/h 9 km/h 64 % 0 mm
20:04 -8.3 °C -12 °C 34327.3 hPa SSW 15 km/h 15 km/h 65 % 0 mm
20:05 -9.8 °C -11.7 °C 34395 hPa Calm   5.1 km/h 80 % 0 mm
20:09 -8.3 °C -12 °C 34327.3 hPa WSW 9 km/h 9 km/h 65 % 0 mm
20:14 -8.3 °C -12 °C 34293.4 hPa SW 9 km/h 9 km/h 65 % 0 mm
20:15 -9.8 °C -11.6 °C 34395 hPa ENE 2.6 km/h 5.1 km/h 81 % 0 mm
20:19 -8.4 °C -12.1 °C 34293.4 hPa WSW 9 km/h 9 km/h 65 % 0 mm
20:20 -8.4 °C -12.1 °C 34293.4 hPa SW 9 km/h 9 km/h 65 % 0 mm
20:25 -8.4 °C -12.1 °C 34293.4 hPa SSW 5.1 km/h 5.1 km/h 65 % 0 mm
20:30 -8.5 °C -12.2 °C 34327.3 hPa SSW 6 km/h 6 km/h 65 % 0 mm
20:35 -8.5 °C -12.2 °C 34327.3 hPa SW 6 km/h 6 km/h 65 % 0 mm
20:40 -8.6 °C -12.2 °C 34327.3 hPa WSW 6.3 km/h 6.3 km/h 65 % 0 mm
20:45 -8.6 °C -12.3 °C 34327.3 hPa WSW 3.1 km/h 3.1 km/h 65 % 0 mm
20:50 -8.6 °C -12.3 °C 34327.3 hPa WSW 3.1 km/h   65 % 0 mm
20:55 -8.7 °C -12.3 °C 34327.3 hPa ENE 6.3 km/h 6.3 km/h 65 % 0 mm
21:00 -8.7 °C -12.4 °C 34327.3 hPa NE 6.8 km/h 6.8 km/h 65 % 0 mm
21:05 -8.8 °C -11.9 °C 34327.3 hPa NE 9.3 km/h 9.3 km/h 69 % 0 mm
21:10 -8.8 °C -11.8 °C 34327.3 hPa East 9 km/h 9 km/h 71 % 0 mm
21:15 -8.9 °C -11.8 °C 34327.3 hPa ESE 11.9 km/h 11.9 km/h 71 % 0 mm
21:20 -8.9 °C -11.6 °C 34327.3 hPa ENE 11.9 km/h 11.9 km/h 73 % 0 mm
21:25 -9.9 °C -11.9 °C 34327.3 hPa NE 5.1 km/h 10.3 km/h 79 % 0 mm
21:30 -8.9 °C -11.5 °C 34327.3 hPa ESE 9 km/h 9 km/h 74 % 0 mm
21:35 -9 °C -11.6 °C 34327.3 hPa ESE 9 km/h 9 km/h 74 % 0 mm
21:40 -9.1 °C -11.6 °C 34327.3 hPa ESE 15 km/h 15 km/h 74 % 0 mm
21:45 -9.1 °C -11.7 °C 34327.3 hPa ENE 8 km/h 8 km/h 74 % 0 mm
21:50 -9.1 °C -11.6 °C 34327.3 hPa East 6 km/h 6 km/h 75 % 0 mm
21:55 -9.2 °C -11.6 °C 34327.3 hPa ESE 7.6 km/h 7.6 km/h 75 % 0 mm
22:00 -9.2 °C -11.7 °C 34361.1 hPa South 3.1 km/h   75 % 0 mm
22:05 -9.2 °C -11.7 °C 34361.1 hPa SSE 3.1 km/h 3.1 km/h 75 % 0 mm
22:10 -9.3 °C -11.7 °C 34361.1 hPa ENE 6.8 km/h 6.8 km/h 75 % 0 mm
22:11 -9.3 °C -11.7 °C 34361.1 hPa ESE 9 km/h 9 km/h 75 % 0 mm
22:15 -10.3 °C -12.1 °C 34361.1 hPa Calm     81 % 0 mm
22:16 -9.3 °C -11.6 °C 34361.1 hPa East 6.3 km/h 6.3 km/h 76 % 0 mm
22:21 -9.3 °C -11.6 °C 34361.1 hPa East 6 km/h 6.3 km/h 76 % 0 mm
22:25 -10.3 °C -12.1 °C 34361.1 hPa NW 2.6 km/h 5.1 km/h 81 % 0 mm
22:26 -9.3 °C -11.7 °C 34361.1 hPa ESE 8 km/h 8 km/h 76 % 0 mm
22:31 -9.3 °C -11.6 °C 34361.1 hPa NE 9 km/h 9 km/h 77 % 0 mm
22:35 -10.4 °C -12.2 °C 34361.1 hPa NNE 5.1 km/h 7.7 km/h 81 % 0 mm
22:36 -9.3 °C -11.7 °C 34361.1 hPa East 9 km/h 9 km/h 76 % 0 mm
22:41 -9.4 °C -11.6 °C 34361.1 hPa NNE 11.9 km/h 11.9 km/h 77 % 0 mm
22:45 -10.5 °C -12.3 °C 34361.1 hPa NNE 7.7 km/h 7.7 km/h 81 % 0 mm
22:46 -9.4 °C -11.6 °C 34361.1 hPa ESE 9 km/h 9 km/h 77 % 0 mm
22:51 -9.4 °C -11.5 °C 34361.1 hPa East 9 km/h 9 km/h 78 % 0 mm
22:55 -10.6 °C -12.4 °C 34327.3 hPa Calm   5.1 km/h 81 % 0 mm
22:56 -9.4 °C -11.5 °C 34361.1 hPa NNE 6.3 km/h 6.3 km/h 78 % 0 mm
23:01 -9.4 °C -11.6 °C 34395 hPa ESE 9 km/h 9 km/h 78 % 0 mm
23:05 -10.7 °C -12.4 °C 34327.3 hPa Calm   5.1 km/h 82 % 0 mm
23:06 -9.4 °C -11.6 °C 34395 hPa ENE 8.5 km/h 8.5 km/h 78 % 0 mm
23:11 -9.4 °C -11.6 °C 34395 hPa ENE 6 km/h 6 km/h 78 % 0 mm
23:15 -10.8 °C -12.4 °C 34327.3 hPa Calm     82 % 0 mm
23:16 -9.5 °C -11.6 °C 34395 hPa NE 11.9 km/h 11.9 km/h 78 % 0 mm
23:21 -9.5 °C -11.5 °C 34395 hPa NNE 9 km/h 9 km/h 79 % 0 mm
23:25 -10.8 °C -12.4 °C 34327.3 hPa Calm     82 % 0 mm
23:26 -9.6 °C -11.6 °C 34395 hPa NE 6 km/h 6.3 km/h 79 % 0 mm
23:31 -9.6 °C -11.6 °C 34395 hPa ESE 5.6 km/h   79 % 0 mm
23:35 -10.8 °C -12.3 °C 34327.3 hPa Calm     83 % 0 mm
23:36 -9.6 °C -11.6 °C 34395 hPa NE 6 km/h 6 km/h 79 % 0 mm
23:41 -9.7 °C -11.7 °C 34395 hPa ENE 6 km/h 6 km/h 79 % 0 mm
23:45 -10.8 °C -12.4 °C 34327.3 hPa Calm     83 % 0 mm
23:46 -9.7 °C -11.6 °C 34361.1 hPa East 4.2 km/h 4.2 km/h 80 % 0 mm
23:51 -9.7 °C -11.6 °C 34361.1 hPa ENE 6 km/h 6 km/h 80 % 0 mm
23:55 -10.8 °C -12.3 °C 34293.4 hPa Calm   5.1 km/h 83 % 0 mm
23:56 -9.7 °C -11.6 °C 34361.1 hPa NE 6 km/h 6 km/h 80 % 0 mm
Meteo Sesrovires
Elogis d' Weather Underground - 1.5 mb

Guio original per  Jim McMurry - jmcmurry@mwt.net Adaptat per a la plantilla per  Wim van der Kuil - Leuven-Template.eu

Trobareu la nostra informacio del temps tambe a:

Weather Underground

AWEKAS